This is the latest recevied weather packets stored in our database for station/object DM4WH-13. If no packets are shown the sender has not sent any weather packets the latest 10 day(s).
| Time | Temp. | Humidity | Pressure | Rain* | Wind** | Luminosity | Snow |
|---|---|---|---|---|---|---|---|
| 1777881906 | 18.89° C | 50% | 1015.6 hPa | 0 mm | 0.45 m/s, 294° | - | - |
| 1777881618 | 18.89° C | 51% | 1015.7 hPa | 0 mm | 0.45 m/s, 301° | - | - |
| 1777881305 | 18.89° C | 50% | 1015.7 hPa | 0 mm | 0.45 m/s, 304° | - | - |
| 1777881018 | 18.89° C | 51% | 1015.7 hPa | 0 mm | 0.45 m/s, 312° | - | - |
| 1777880418 | 20° C | 47% | 1015.6 hPa | 0 mm | 0 m/s | - | - |
| 1777880105 | 20° C | 49% | 1015.5 hPa | 0 mm | 0 m/s | - | - |
| 1777879818 | 18.89° C | 51% | 1015.5 hPa | 0 mm | 0.45 m/s, 96° | - | - |
| 1777879505 | 18.89° C | 52% | 1015.6 hPa | 0 mm | 0.45 m/s, 138° | - | - |
| 1777879218 | 18.89° C | 52% | 1015.6 hPa | 0 mm | 0.45 m/s, 159° | - | - |
| 1777878905 | 18.89° C | 51% | 1015.6 hPa | 0 mm | 0.45 m/s, 114° | - | - |
| 1777878618 | 18.89° C | 51% | 1015.5 hPa | 0 mm | 0 m/s | - | - |
| 1777878306 | 17.78° C | 51% | 1015.5 hPa | 0 mm | 0 m/s | - | - |
| 1777878018 | 17.78° C | 53% | 1015.4 hPa | 0 mm | 0.45 m/s, 96° | - | - |
| 1777877706 | 17.78° C | 54% | 1015.4 hPa | 0 mm | 0 m/s | - | - |
| 1777877418 | 17.78° C | 54% | 1015.2 hPa | 0 mm | 0.45 m/s, 102° | - | - |
| 1777877106 | 18.89° C | 53% | 1015.2 hPa | 0 mm | 0.89 m/s, 118° | - | - |
| 1777876818 | 18.89° C | 51% | 1015.3 hPa | 0 mm | 0.45 m/s, 108° | - | - |
| 1777876506 | 17.78° C | 54% | 1015.3 hPa | 0 mm | 0 m/s | - | - |
| 1777876218 | 17.22° C | 55% | 1015.3 hPa | 0 mm | 0.45 m/s, 114° | - | - |
| 1777875905 | 17.22° C | 57% | 1015.4 hPa | 0 mm | 0.45 m/s, 152° | - | - |
| 1777875619 | 17.22° C | 60% | 1015.5 hPa | 0 mm | 0.45 m/s, 180° | - | - |
| 1777875306 | 17.22° C | 61% | 1015.3 hPa | 0 mm | 0.45 m/s, 162° | - | - |
| 1777875030 | 16.11° C | 60% | 1015.2 hPa | 0 mm | 0.45 m/s, 101° | - | - |
| 1777874717 | 16.11° C | 63% | 1015.3 hPa | 0 mm | 0.45 m/s, 234° | - | - |
| 1777874405 | 16.11° C | 60% | 1015.3 hPa | 0 mm | 0 m/s | - | - |
* Rain latest hour (hover to see other rain measurements)
** Current wind speed in m/s (hover to see current wind gust speed)